Time;durP1;ratioP1;P1;durP2;ratioP2;P2;SDS_P1;SDS_P2;PMS_P1;PMS_P2;Temp;Humidity;BMP_temperature;BMP_pressure;BME280_temperature;BME280_humidity;BME280_pressure;Samples;Min_cycle;Max_cycle;Signal;HPM_P1;HPM_P2
2021/05/21 00:00:41;;;;;;;4.63;3.30;;;;;;;12.69;100.00;95604.50;4956415;29;20209;-85
2021/05/21 00:05:52;;;;;;;3.40;3.03;;;;;;;12.74;100.00;95674.13;4946652;29;20687;-85
2021/05/21 00:08:43;;;;;;;3.57;3.33;;;;;;;12.71;100.00;95677.16;4951181;28;20219;-85
2021/05/21 00:16:57;;;;;;;3.33;2.90;;;;;;;12.62;100.00;95741.53;4936460;29;20369;-85
2021/05/21 00:19:28;;;;;;;3.53;3.30;;;;;;;12.72;100.00;95781.63;4936284;29;20305;-85
2021/05/21 00:22:10;;;;;;;3.27;3.07;;;;;;;12.61;100.00;95727.53;4940804;28;20271;-86
2021/05/21 00:24:40;;;;;;;2.83;2.53;;;;;;;12.45;100.00;95690.84;4955761;29;20281;-85
2021/05/21 00:27:08;;;;;;;2.77;2.33;;;;;;;12.64;100.00;95725.50;4955787;28;20205;-84
2021/05/21 00:29:34;;;;;;;3.13;2.93;;;;;;;12.48;100.00;95710.75;4955808;29;20204;-85
2021/05/21 00:32:01;;;;;;;3.10;2.90;;;;;;;12.60;100.00;95756.72;4955908;28;20739;-84
2021/05/21 00:34:28;;;;;;;3.30;3.00;;;;;;;12.53;100.00;95790.88;4955650;29;20198;-86
2021/05/21 00:36:55;;;;;;;3.27;2.70;;;;;;;12.43;100.00;95798.25;4955730;29;20237;-85
2021/05/21 00:39:22;;;;;;;4.40;2.50;;;;;;;12.44;100.00;95799.09;4955481;29;20210;-85
2021/05/21 00:42:09;;;;;;;2.60;2.40;;;;;;;12.45;100.00;95806.81;4955463;28;20210;-85
2021/05/21 00:44:38;;;;;;;3.30;2.67;;;;;;;12.41;100.00;95863.50;4950894;28;20222;-84
2021/05/21 00:47:05;;;;;;;2.87;2.67;;;;;;;12.28;100.00;95976.59;4936124;29;20664;-84
2021/05/21 00:49:33;;;;;;;3.10;2.90;;;;;;;12.30;100.00;96043.16;4936255;29;20242;-85
2021/05/21 00:52:03;;;;;;;4.47;2.70;;;;;;;12.22;100.00;96085.34;4936199;29;20206;-84
2021/05/21 00:54:31;;;;;;;2.90;2.70;;;;;;;11.87;100.00;96104.09;4936120;29;20190;-84
2021/05/21 00:56:58;;;;;;;3.07;2.77;;;;;;;11.90;100.00;96209.09;4935960;29;20210;-84
2021/05/21 00:59:41;;;;;;;3.63;2.70;;;;;;;11.92;100.00;96264.25;4936024;29;20234;-84
2021/05/21 01:02:09;;;;;;;2.70;2.50;;;;;;;11.91;100.00;96336.34;4935778;29;20639;-84
2021/05/21 01:04:37;;;;;;;2.87;2.67;;;;;;;11.92;100.00;96363.53;4936074;29;20258;-84
2021/05/21 01:07:05;;;;;;;2.83;2.63;;;;;;;11.93;100.00;96349.34;4936206;29;20262;-84
2021/05/21 01:09:33;;;;;;;2.57;2.37;;;;;;;11.89;100.00;96348.88;4935856;29;20213;-84
2021/05/21 01:15:08;;;;;;;2.10;2.00;;;;;;;11.70;100.00;96420.22;4939091;28;20282;-84
2021/05/21 01:17:35;;;;;;;2.33;2.13;;;;;;;11.69;100.00;96466.81;4954887;29;20245;-84
2021/05/21 01:20:02;;;;;;;2.03;1.93;;;;;;;11.72;100.00;96476.19;4954546;29;20710;-84
2021/05/21 01:22:29;;;;;;;1.60;1.50;;;;;;;11.54;100.00;96497.38;4955151;28;20233;-84
2021/05/21 01:27:50;;;;;;;2.37;1.80;;;;;;;11.44;100.00;96581.72;4952575;29;20623;-84
2021/05/21 01:30:23;;;;;;;1.70;1.60;;;;;;;11.53;100.00;96654.47;4954472;28;20213;-85
2021/05/21 01:33:13;;;;;;;1.73;1.63;;;;;;;11.58;100.00;96681.16;4965085;28;20215;-84
2021/05/21 01:35:43;;;;;;;1.57;1.47;;;;;;;11.54;100.00;96650.03;4973951;28;20246;-85
2021/05/21 01:38:39;;;;;;;2.33;1.20;;;;;;;11.51;100.00;96645.09;4973273;28;20197;-84
2021/05/21 01:41:08;;;;;;;1.53;1.33;;;;;;;11.49;100.00;96642.59;4973872;28;20797;-84
2021/05/21 01:43:38;;;;;;;2.37;1.43;;;;;;;11.38;100.00;96653.38;4946690;28;20232;-85
2021/05/21 01:46:06;;;;;;;1.60;1.50;;;;;;;11.36;100.00;96679.88;4918154;29;20203;-85
2021/05/21 01:48:32;;;;;;;1.47;1.37;;;;;;;11.28;100.00;96682.41;4934952;29;20206;-84
2021/05/21 01:51:03;;;;;;;2.30;1.37;;;;;;;11.30;100.00;96634.91;4935243;29;20214;-84
2021/05/21 01:53:34;;;;;;;1.40;1.30;;;;;;;11.21;100.00;96635.81;4935070;29;20183;-84
2021/05/21 01:56:01;;;;;;;1.33;1.13;;;;;;;10.95;100.00;96652.41;4935265;29;20192;-84
2021/05/21 01:58:29;;;;;;;1.40;1.30;;;;;;;10.93;100.00;96670.13;4934751;29;20210;-84
2021/05/21 02:00:56;;;;;;;1.10;1.10;;;;;;;10.91;100.00;96688.69;4935140;29;20203;-84
2021/05/21 02:03:23;;;;;;;1.07;1.07;;;;;;;11.04;100.00;96726.94;4934786;29;20233;-84
2021/05/21 02:05:49;;;;;;;3.07;2.80;;;;;;;11.17;100.00;96725.59;4935044;29;20208;-84
2021/05/21 02:08:16;;;;;;;1.10;1.10;;;;;;;11.06;100.00;96696.06;4934694;29;20207;-84
2021/05/21 02:10:45;;;;;;;2.53;1.40;;;;;;;11.09;100.00;96704.47;4935063;29;20195;-84
2021/05/21 02:13:12;;;;;;;5.40;1.20;;;;;;;11.18;100.00;96711.44;4934749;29;20325;-84
2021/05/21 02:15:39;;;;;;;1.57;1.20;;;;;;;11.26;100.00;96707.25;4935010;29;20202;-84
2021/05/21 02:18:06;;;;;;;1.30;1.20;;;;;;;11.33;100.00;96705.66;4935109;29;20207;-84
2021/05/21 02:20:32;;;;;;;1.40;1.30;;;;;;;11.32;100.00;96706.63;4934751;29;20283;-84
2021/05/21 02:22:59;;;;;;;1.63;1.53;;;;;;;11.31;100.00;96733.91;4934573;29;20737;-85
2021/05/21 02:25:26;;;;;;;1.53;1.43;;;;;;;11.35;100.00;96757.13;4935074;29;20203;-85
2021/05/21 02:27:54;;;;;;;3.53;1.50;;;;;;;11.43;100.00;96790.63;4934635;29;20214;-85
2021/05/21 02:30:21;;;;;;;1.90;1.80;;;;;;;11.35;100.00;96777.38;4934752;29;20213;-85
2021/05/21 02:32:48;;;;;;;1.60;1.50;;;;;;;11.29;100.00;96799.03;4934900;29;20202;-84
2021/05/21 02:35:15;;;;;;;1.47;1.37;;;;;;;11.34;100.00;96836.25;4934462;29;20203;-84
2021/05/21 02:37:43;;;;;;;1.60;1.50;;;;;;;11.36;100.00;96850.06;4934614;29;20203;-84
2021/05/21 02:40:11;;;;;;;2.27;1.63;;;;;;;11.52;100.00;96867.84;4934934;29;20203;-84
2021/05/21 02:42:39;;;;;;;1.30;1.20;;;;;;;11.64;100.00;96864.03;4938514;29;20237;-84
2021/05/21 02:45:08;;;;;;;1.50;1.40;;;;;;;11.64;100.00;96851.69;4938437;29;20202;-84
2021/05/21 02:47:35;;;;;;;1.47;1.37;;;;;;;11.45;100.00;96809.72;4938728;29;20201;-84
2021/05/21 02:50:03;;;;;;;1.77;1.57;;;;;;;11.44;100.00;96831.75;4938678;29;20212;-84
2021/05/21 02:52:30;;;;;;;4.43;1.40;;;;;;;11.45;100.00;96851.81;4938439;29;20202;-84
2021/05/21 02:54:57;;;;;;;1.50;1.40;;;;;;;11.36;100.00;96855.34;4938508;29;20563;-84
2021/05/21 02:57:24;;;;;;;2.93;1.43;;;;;;;11.17;100.00;96875.53;4941957;29;20208;-85
2021/05/21 02:59:53;;;;;;;1.53;1.43;;;;;;;11.05;100.00;96871.47;4957612;28;20579;-84
2021/05/21 03:02:22;;;;;;;1.70;1.60;;;;;;;11.15;100.00;96903.81;4957349;28;20261;-83
2021/05/21 03:04:51;;;;;;;4.23;2.80;;;;;;;11.12;100.00;96890.97;4960582;29;20228;-84
2021/05/21 03:10:02;;;;;;;1.70;1.60;;;;;;;10.97;100.00;96876.63;4956231;29;20233;-83
2021/05/21 03:12:31;;;;;;;2.07;1.60;;;;;;;10.90;100.00;96909.72;4953544;28;20233;-84
2021/05/21 03:14:58;;;;;;;1.73;1.50;;;;;;;10.84;100.00;96926.09;4953889;28;20209;-85
2021/05/21 03:17:26;;;;;;;1.53;1.43;;;;;;;10.91;100.00;96928.03;4955354;28;20280;-84
2021/05/21 03:19:52;;;;;;;1.90;1.80;;;;;;;10.81;100.00;96940.38;4955165;29;20727;-84
2021/05/21 03:22:19;;;;;;;2.70;1.63;;;;;;;11.07;100.00;96973.91;4956039;29;20229;-83
2021/05/21 03:24:46;;;;;;;4.07;2.57;;;;;;;10.97;100.00;96975.75;4956566;29;20260;-85
2021/05/21 03:27:13;;;;;;;1.83;1.73;;;;;;;10.86;100.00;96987.25;4956287;28;20202;-85
2021/05/21 03:29:41;;;;;;;2.07;1.93;;;;;;;10.76;100.00;96996.97;4956063;28;20268;-83
2021/05/21 03:32:11;;;;;;;1.80;1.70;;;;;;;10.84;100.00;97011.09;4952829;29;20683;-83
2021/05/21 03:34:43;;;;;;;2.00;1.83;;;;;;;10.83;100.00;96982.28;4956176;28;20750;-84
2021/05/21 03:37:11;;;;;;;2.00;1.90;;;;;;;11.06;100.00;97030.13;4955839;29;20289;-84
2021/05/21 03:39:38;;;;;;;1.87;1.77;;;;;;;11.19;100.00;97035.91;4955910;28;20222;-84
2021/05/21 03:42:09;;;;;;;2.50;2.13;;;;;;;11.00;100.00;97057.00;4955333;28;20199;-83
2021/05/21 03:44:36;;;;;;;3.47;1.93;;;;;;;11.02;100.00;97074.31;4956131;28;20229;-87
2021/05/21 03:47:03;;;;;;;2.20;2.10;;;;;;;11.16;100.00;97101.97;4956578;28;20209;-86
2021/05/21 03:49:48;;;;;;;1.90;1.80;;;;;;;11.22;100.00;97053.19;4956069;29;20205;-84
2021/05/21 03:52:15;;;;;;;2.43;2.20;;;;;;;11.11;100.00;97064.72;4955096;28;20226;-84
2021/05/21 03:54:42;;;;;;;2.23;1.90;;;;;;;11.22;100.00;97090.84;4955896;29;20214;-85
2021/05/21 03:57:10;;;;;;;2.17;2.07;;;;;;;11.02;100.00;97097.97;4956096;28;20575;-85
2021/05/21 03:59:36;;;;;;;3.10;2.43;;;;;;;10.98;100.00;97117.66;4955057;28;20693;-83
2021/05/21 04:02:04;;;;;;;2.00;1.90;;;;;;;10.90;100.00;97120.13;4956127;29;20209;-85
2021/05/21 04:04:31;;;;;;;2.20;2.10;;;;;;;10.87;100.00;97139.66;4956489;28;20245;-84
2021/05/21 04:06:59;;;;;;;2.37;2.27;;;;;;;10.91;100.00;97143.69;4956274;28;20304;-84
2021/05/21 04:09:26;;;;;;;3.23;2.20;;;;;;;10.93;100.00;97156.69;4956006;29;20207;-84
2021/05/21 04:11:53;;;;;;;2.40;2.23;;;;;;;10.93;100.00;97146.97;4956199;28;20200;-84
2021/05/21 04:14:20;;;;;;;3.13;2.20;;;;;;;11.06;100.00;97145.88;4955748;28;20202;-84
2021/05/21 04:16:46;;;;;;;2.13;2.03;;;;;;;10.88;100.00;97115.03;4956415;28;20206;-86
2021/05/21 04:19:13;;;;;;;2.63;2.43;;;;;;;10.98;100.00;97122.91;4955864;28;20242;-85
2021/05/21 04:21:40;;;;;;;2.43;2.23;;;;;;;10.84;100.00;97132.06;4956392;29;20202;-86
2021/05/21 04:24:09;;;;;;;3.47;2.83;;;;;;;10.92;100.00;97131.34;4956047;28;20261;-85
2021/05/21 04:26:36;;;;;;;2.63;2.47;;;;;;;10.94;100.00;97151.28;4956031;29;20281;-86
2021/05/21 04:29:04;;;;;;;2.60;2.40;;;;;;;10.88;100.00;97178.16;4956044;29;20693;-86
2021/05/21 04:31:30;;;;;;;3.33;3.03;;;;;;;10.87;100.00;97225.59;4956106;29;20201;-85
2021/05/21 04:33:57;;;;;;;2.23;2.13;;;;;;;10.93;100.00;97272.41;4955755;29;20233;-85
2021/05/21 04:36:24;;;;;;;2.60;2.50;;;;;;;10.96;100.00;97303.69;4955593;28;20209;-85
2021/05/21 04:38:51;;;;;;;2.23;2.13;;;;;;;10.99;100.00;97307.88;4955892;29;20245;-86
2021/05/21 04:41:19;;;;;;;2.53;2.33;;;;;;;11.05;100.00;97297.63;4955734;29;20202;-85
2021/05/21 04:43:46;;;;;;;2.07;1.93;;;;;;;10.96;100.00;97277.41;4955557;29;20233;-84
2021/05/21 04:46:13;;;;;;;2.70;2.50;;;;;;;11.03;100.00;97285.59;4955628;29;20206;-85
2021/05/21 04:48:40;;;;;;;2.23;2.13;;;;;;;11.03;100.00;97280.31;4955309;28;20237;-84
2021/05/21 04:51:07;;;;;;;2.53;2.13;;;;;;;11.07;100.00;97250.97;4955610;28;20253;-86
2021/05/21 04:53:34;;;;;;;3.03;2.77;;;;;;;11.12;100.00;97237.41;4955944;28;20201;-84
2021/05/21 04:56:01;;;;;;;2.60;2.40;;;;;;;11.12;100.00;97209.31;4955578;28;20205;-85
2021/05/21 04:58:29;;;;;;;2.67;2.47;;;;;;;11.20;100.00;97208.59;4955287;28;20671;-86
2021/05/21 05:00:56;;;;;;;2.73;2.53;;;;;;;11.35;100.00;97219.53;4956062;29;20204;-92
2021/05/21 05:03:24;;;;;;;2.83;2.60;;;;;;;11.34;100.00;97200.28;4954958;28;20234;-85
2021/05/21 05:05:51;;;;;;;2.43;2.20;;;;;;;11.27;100.00;97198.34;4955502;28;20628;-86
2021/05/21 05:08:17;;;;;;;3.17;2.93;;;;;;;11.20;100.00;97221.75;4955709;29;20212;-84
2021/05/21 05:10:45;;;;;;;2.80;2.60;;;;;;;11.32;100.00;97231.16;4955150;29;20198;-85
2021/05/21 05:13:12;;;;;;;2.80;2.60;;;;;;;11.37;100.00;97238.66;4954928;29;20674;-85
2021/05/21 05:15:41;;;;;;;3.20;3.00;;;;;;;11.34;100.00;97259.97;4955034;28;20213;-85
2021/05/21 05:18:08;;;;;;;2.80;2.60;;;;;;;11.27;100.00;97254.44;4955271;28;20208;-86
2021/05/21 05:20:35;;;;;;;3.40;3.10;;;;;;;11.45;100.00;97256.38;4955336;28;20266;-86
2021/05/21 05:23:02;;;;;;;3.83;3.53;;;;;;;11.47;100.00;97257.91;4954774;29;20222;-86
2021/05/21 05:25:30;;;;;;;3.33;3.13;;;;;;;11.50;100.00;97275.19;4954895;29;20269;-86
2021/05/21 05:27:56;;;;;;;5.80;3.40;;;;;;;11.51;100.00;97293.50;4955166;28;20217;-86
2021/05/21 05:30:24;;;;;;;3.17;2.97;;;;;;;11.62;100.00;97311.78;4954952;29;20257;-86
2021/05/21 05:32:52;;;;;;;4.97;3.03;;;;;;;11.65;100.00;97324.66;4954764;29;20200;-86
2021/05/21 05:35:19;;;;;;;4.20;3.90;;;;;;;11.77;100.00;97335.06;4954664;29;20304;-86
2021/05/21 05:37:46;;;;;;;3.33;3.13;;;;;;;11.84;100.00;97363.34;4954787;28;20201;-86
2021/05/21 05:40:13;;;;;;;3.73;3.43;;;;;;;11.95;100.00;97380.00;4954612;28;20198;-86
2021/05/21 05:42:40;;;;;;;3.37;3.17;;;;;;;11.99;100.00;97378.75;4954503;28;20238;-85
2021/05/21 05:45:08;;;;;;;3.97;3.23;;;;;;;12.10;100.00;97358.34;4954593;29;20201;-86
2021/05/21 05:47:35;;;;;;;3.87;3.47;;;;;;;12.16;100.00;97327.13;4954502;28;20675;-86
2021/05/21 05:50:03;;;;;;;3.93;3.63;;;;;;;12.21;100.00;97301.19;4954390;29;20205;-86
2021/05/21 05:52:30;;;;;;;4.60;3.70;;;;;;;12.31;100.00;97330.97;4954675;28;20201;-86
2021/05/21 05:54:57;;;;;;;3.77;3.47;;;;;;;12.46;100.00;97394.63;4954625;29;20250;-86
2021/05/21 05:57:24;;;;;;;3.37;3.10;;;;;;;12.62;100.00;97426.50;4954486;28;20228;-86
2021/05/21 05:59:51;;;;;;;3.70;3.40;;;;;;;12.40;100.00;97364.41;4954619;28;20198;-86
2021/05/21 06:02:18;;;;;;;3.63;3.33;;;;;;;12.43;100.00;97315.81;4953380;28;20211;-86
2021/05/21 06:04:44;;;;;;;4.33;3.30;;;;;;;12.66;100.00;97311.00;4953143;29;20326;-86
2021/05/21 06:07:12;;;;;;;3.80;3.33;;;;;;;12.80;100.00;97277.03;4954099;28;20298;-86
2021/05/21 06:09:39;;;;;;;3.20;3.00;;;;;;;12.87;100.00;97210.50;4954454;29;20210;-86
2021/05/21 06:12:07;;;;;;;2.97;2.77;;;;;;;12.98;100.00;97218.19;4954158;29;20296;-86
2021/05/21 06:14:34;;;;;;;3.13;2.93;;;;;;;13.16;100.00;97160.09;4953956;28;20255;-86
2021/05/21 06:17:01;;;;;;;3.27;2.83;;;;;;;13.23;100.00;97127.69;4953967;28;20202;-86
2021/05/21 06:19:28;;;;;;;3.73;3.37;;;;;;;13.17;100.00;97059.66;4953953;28;20244;-86
2021/05/21 06:21:55;;;;;;;2.97;2.77;;;;;;;13.25;100.00;96979.72;4954121;28;20201;-86
2021/05/21 06:24:23;;;;;;;2.90;2.70;;;;;;;13.24;100.00;96909.44;4953807;28;20707;-86
2021/05/21 06:29:34;;;;;;;3.00;2.80;;;;;;;13.61;100.00;96850.09;4953965;29;20192;-86
2021/05/21 06:32:01;;;;;;;2.77;2.57;;;;;;;13.42;100.00;96762.28;4954234;29;20301;-86
2021/05/21 06:34:28;;;;;;;4.67;3.50;;;;;;;13.59;100.00;96855.56;4954213;29;20201;-86
2021/05/21 06:36:55;;;;;;;3.17;2.97;;;;;;;13.54;100.00;96761.00;4954196;29;20586;-86
2021/05/21 06:39:23;;;;;;;2.37;2.27;;;;;;;13.49;100.00;96755.38;4953793;28;20198;-86
2021/05/21 06:41:50;;;;;;;3.37;3.07;;;;;;;13.55;100.00;96740.69;4954260;29;20206;-87
2021/05/21 06:44:17;;;;;;;3.90;3.57;;;;;;;13.51;100.00;96737.56;4953993;28;20733;-87
2021/05/21 06:46:44;;;;;;;5.07;4.30;;;;;;;13.49;100.00;96723.69;4953980;29;20209;-86
2021/05/21 06:49:14;;;;;;;5.03;4.63;;;;;;;13.50;100.00;96746.44;4953913;28;20205;-86
2021/05/21 06:51:41;;;;;;;3.40;3.10;;;;;;;13.48;100.00;96811.00;4954359;29;20202;-86
2021/05/21 06:54:09;;;;;;;4.03;3.63;;;;;;;13.48;100.00;96859.34;4953946;29;20237;-87
2021/05/21 06:56:39;;;;;;;4.60;4.10;;;;;;;13.42;100.00;96838.03;4954179;29;20291;-87
2021/05/21 06:59:06;;;;;;;5.57;5.07;;;;;;;13.31;100.00;96862.94;4953908;28;20679;-87
2021/05/21 07:01:33;;;;;;;3.43;3.23;;;;;;;13.13;100.00;96897.34;4953873;28;20198;-86
2021/05/21 07:04:00;;;;;;;4.17;3.87;;;;;;;12.94;100.00;96942.41;4953477;28;20253;-86
2021/05/21 07:06:26;;;;;;;5.77;3.17;;;;;;;12.91;100.00;96954.09;4953809;28;20603;-85
2021/05/21 07:08:53;;;;;;;3.87;3.10;;;;;;;12.81;100.00;96972.69;4954083;29;20206;-87
2021/05/21 07:11:20;;;;;;;3.00;2.70;;;;;;;12.83;100.00;97070.16;4953725;29;20257;-86
2021/05/21 07:13:48;;;;;;;3.23;2.93;;;;;;;12.71;100.00;97174.22;4953932;29;20261;-86
2021/05/21 07:16:15;;;;;;;2.80;2.60;;;;;;;12.73;100.00;97259.31;4953793;28;20208;-87
2021/05/21 07:18:42;;;;;;;3.70;2.70;;;;;;;12.95;100.00;97310.84;4953363;28;20229;-86
2021/05/21 07:21:09;;;;;;;2.93;2.73;;;;;;;12.81;100.00;97291.06;4953315;28;20187;-86
2021/05/21 07:23:36;;;;;;;2.83;2.63;;;;;;;12.72;100.00;97323.59;4952668;29;20288;-86
2021/05/21 07:26:03;;;;;;;3.40;3.17;;;;;;;12.92;100.00;97435.13;4952961;28;20299;-87
2021/05/21 07:28:30;;;;;;;3.63;3.33;;;;;;;12.96;100.00;97495.44;4955923;29;20201;-86
2021/05/21 07:30:58;;;;;;;4.57;4.20;;;;;;;12.82;100.00;97591.69;4956047;29;20198;-87
2021/05/21 07:33:25;;;;;;;4.40;4.00;;;;;;;13.24;100.00;97667.09;4955960;29;20233;-86
2021/05/21 07:35:52;;;;;;;15.03;4.20;;;;;;;13.25;100.00;97725.03;4956290;28;20213;-87
2021/05/21 07:38:19;;;;;;;3.40;3.10;;;;;;;13.31;100.00;97813.44;4956125;29;20630;-87
2021/05/21 07:40:46;;;;;;;2.90;2.70;;;;;;;13.15;100.00;97791.97;4955721;28;20237;-87
2021/05/21 07:43:13;;;;;;;4.83;4.13;;;;;;;13.21;100.00;97817.84;4956056;29;20253;-86
2021/05/21 07:45:40;;;;;;;3.00;2.80;;;;;;;13.26;100.00;97789.25;4955835;28;20694;-87
2021/05/21 07:48:08;;;;;;;3.13;2.87;;;;;;;13.25;100.00;97758.53;4956027;28;20911;-86
2021/05/21 07:50:38;;;;;;;2.90;2.70;;;;;;;13.20;100.00;97737.81;4955758;28;20212;-87
2021/05/21 07:53:05;;;;;;;4.57;3.10;;;;;;;12.97;100.00;97766.25;4955901;28;20660;-86
2021/05/21 07:55:32;;;;;;;4.23;2.77;;;;;;;12.95;100.00;97812.22;4955724;29;20202;-87
2021/05/21 07:57:59;;;;;;;2.97;2.77;;;;;;;12.62;100.00;97882.81;4955764;28;20205;-87
2021/05/21 08:00:26;;;;;;;3.20;2.90;;;;;;;12.70;100.00;97956.00;4955808;28;20208;-86
2021/05/21 08:02:53;;;;;;;3.20;2.90;;;;;;;12.56;100.00;97970.38;4955523;29;20287;-86
2021/05/21 08:05:22;;;;;;;2.93;2.73;;;;;;;12.33;100.00;97988.09;4955682;28;20209;-87
2021/05/21 08:07:49;;;;;;;3.87;3.57;;;;;;;12.57;100.00;98040.59;4955622;28;20297;-87
2021/05/21 08:10:16;;;;;;;3.47;3.27;;;;;;;12.49;100.00;98022.78;4955939;28;20257;-87
2021/05/21 08:12:42;;;;;;;3.87;3.57;;;;;;;12.52;100.00;97998.78;4955560;28;20194;-87
2021/05/21 08:15:11;;;;;;;3.57;3.27;;;;;;;12.72;100.00;98002.41;4955418;28;20209;-87
2021/05/21 08:17:38;;;;;;;3.80;3.50;;;;;;;12.97;100.00;98011.72;4955271;29;20202;-87
2021/05/21 08:20:06;;;;;;;3.93;3.63;;;;;;;12.76;100.00;97987.97;4922146;28;986523;-86
2021/05/21 08:22:34;;;;;;;3.60;3.30;;;;;;;13.02;100.00;97972.56;4956301;28;20292;-87
2021/05/21 08:25:01;;;;;;;3.57;2.97;;;;;;;12.87;100.00;97944.84;4956016;29;20256;-86
2021/05/21 08:27:28;;;;;;;3.47;3.27;;;;;;;12.77;100.00;97907.03;4956418;28;20204;-86
2021/05/21 08:29:55;;;;;;;4.57;4.10;;;;;;;12.71;100.00;97918.09;4956495;29;20666;-86
2021/05/21 08:32:22;;;;;;;4.13;3.83;;;;;;;12.93;100.00;97970.72;4956166;28;20198;-87
2021/05/21 08:34:49;;;;;;;4.50;4.10;;;;;;;13.22;100.00;97986.66;4953585;28;20206;-85
2021/05/21 08:37:16;;;;;;;4.57;4.17;;;;;;;13.01;100.00;97952.41;4935590;29;20207;-86
2021/05/21 08:39:43;;;;;;;4.53;4.13;;;;;;;12.91;100.00;97963.88;4934712;29;20301;-85
2021/05/21 08:42:12;;;;;;;4.17;3.87;;;;;;;13.09;100.00;97928.84;4936152;29;20206;-86
2021/05/21 08:44:45;;;;;;;3.67;3.37;;;;;;;13.03;100.00;97867.81;4936050;29;20237;-85
2021/05/21 08:47:13;;;;;;;4.57;3.43;;;;;;;13.21;100.00;97813.38;4936727;29;20256;-87
2021/05/21 08:49:40;;;;;;;4.27;3.87;;;;;;;13.38;100.00;97771.47;4937003;29;20210;-87
2021/05/21 08:52:07;;;;;;;5.20;3.30;;;;;;;13.65;100.00;97726.69;4936398;29;20195;-86
2021/05/21 08:54:36;;;;;;;3.70;3.40;;;;;;;13.49;100.00;97721.97;4937039;29;20211;-86
2021/05/21 08:57:07;;;;;;;5.17;3.43;;;;;;;13.24;100.00;97722.56;4936502;29;20202;-87
2021/05/21 08:59:34;;;;;;;3.73;3.43;;;;;;;12.94;100.00;97766.53;4936355;29;20691;-86
2021/05/21 09:02:02;;;;;;;4.13;3.83;;;;;;;12.80;100.00;97817.88;4936401;29;20205;-86
2021/05/21 09:04:46;;;;;;;3.70;3.40;;;;;;;13.29;100.00;97836.50;4936286;29;20226;-86
2021/05/21 09:07:20;;;;;;;3.90;3.70;;;;;;;14.07;100.00;97879.63;4936681;29;20566;-87
2021/05/21 09:09:47;;;;;;;4.67;4.27;;;;;;;14.08;100.00;97814.34;4936450;29;20193;-86
2021/05/21 09:12:17;;;;;;;3.30;3.10;;;;;;;14.13;100.00;97748.66;4936452;29;20248;-87
2021/05/21 09:15:03;;;;;;;4.60;3.30;;;;;;;14.31;100.00;97680.81;4935959;29;20190;-86
2021/05/21 09:17:30;;;;;;;3.10;2.90;;;;;;;14.06;100.00;97608.28;4936117;29;20194;-87
2021/05/21 09:19:58;;;;;;;3.20;3.00;;;;;;;14.14;100.00;97628.72;4935847;29;20238;-86
2021/05/21 09:22:25;;;;;;;3.07;2.77;;;;;;;14.67;100.00;97625.31;4936231;29;20270;-87
2021/05/21 09:24:52;;;;;;;3.13;2.47;;;;;;;14.93;100.00;97538.03;4935734;29;20276;-86
2021/05/21 09:27:21;;;;;;;3.57;2.90;;;;;;;14.95;100.00;97462.75;4935992;29;20199;-87
2021/05/21 09:29:49;;;;;;;2.60;2.40;;;;;;;14.79;100.00;97372.69;4935779;29;20202;-86
2021/05/21 09:32:24;;;;;;;3.20;3.00;;;;;;;14.83;100.00;97338.81;4936003;29;20211;-87
2021/05/21 09:35:03;;;;;;;3.80;3.40;;;;;;;14.84;100.00;97390.75;4935881;29;20222;-87
2021/05/21 09:37:30;;;;;;;3.50;3.20;;;;;;;15.21;100.00;97279.19;4935960;29;20225;-87
2021/05/21 09:40:05;;;;;;;3.50;3.20;;;;;;;15.37;100.00;97223.56;4935934;29;20202;-87
2021/05/21 09:42:46;;;;;;;7.53;4.47;;;;;;;15.61;100.00;97102.66;4935620;29;20218;-87
2021/05/21 09:45:18;;;;;;;2.97;2.77;;;;;;;15.42;100.00;96985.50;4936499;29;20184;-87
2021/05/21 09:47:50;;;;;;;2.40;1.90;;;;;;;15.07;100.00;96767.03;4935612;29;20202;-85
2021/05/21 09:50:18;;;;;;;4.10;3.70;;;;;;;15.10;100.00;96704.94;4935813;29;20258;-86
2021/05/21 09:52:46;;;;;;;2.40;2.20;;;;;;;15.48;100.00;96676.69;4935117;29;20200;-85
2021/05/21 09:55:15;;;;;;;2.40;2.20;;;;;;;15.60;100.00;96667.31;4935323;29;20207;-86
2021/05/21 09:57:45;;;;;;;3.10;2.77;;;;;;;15.19;100.00;96643.00;4935299;29;20648;-86
2021/05/21 10:00:13;;;;;;;3.27;2.20;;;;;;;15.59;100.00;96720.50;4935859;29;20290;-87
2021/05/21 10:02:41;;;;;;;2.13;2.03;;;;;;;16.09;100.00;96703.13;4935644;29;20211;-88
2021/05/21 10:05:09;;;;;;;7.57;2.10;;;;;;;16.60;100.00;96440.50;4935981;29;20228;-88
2021/05/21 10:07:36;;;;;;;1.77;1.67;;;;;;;16.57;100.00;96324.94;4935624;29;20207;-88
2021/05/21 10:10:04;;;;;;;2.10;2.00;;;;;;;16.34;100.00;96351.69;4935948;29;20213;-88
2021/05/21 10:12:31;;;;;;;1.80;1.70;;;;;;;16.08;100.00;96315.22;4935930;29;20228;-89
2021/05/21 10:14:59;;;;;;;1.60;1.50;;;;;;;16.01;100.00;96212.78;4935721;29;20752;-88
2021/05/21 10:17:28;;;;;;;1.80;1.67;;;;;;;16.04;100.00;96252.97;4935713;29;20902;-89
2021/05/21 10:19:56;;;;;;;1.80;1.70;;;;;;;15.88;100.00;96309.72;4935313;29;20240;-87
2021/05/21 10:22:26;;;;;;;1.63;1.53;;;;;;;15.86;100.00;96335.63;4935613;29;20252;-90
2021/05/21 10:24:56;;;;;;;1.87;1.77;;;;;;;15.82;100.00;96379.38;4935835;29;20319;-91
2021/05/21 10:27:30;;;;;;;1.70;1.60;;;;;;;16.26;100.00;96420.00;4935491;29;20209;-90
2021/05/21 10:30:02;;;;;;;1.83;1.67;;;;;;;16.58;100.00;96400.03;4935994;29;20205;-89
2021/05/21 10:32:30;;;;;;;2.37;1.80;;;;;;;16.99;100.00;96287.81;4935875;29;20190;-88
2021/05/21 10:34:59;;;;;;;2.87;1.97;;;;;;;16.71;100.00;96227.66;4935524;29;20200;-88
2021/05/21 10:37:28;;;;;;;23.83;15.33;;;;;;;16.63;100.00;96233.13;4935788;29;20211;-88
2021/05/21 10:40:05;;;;;;;9.73;6.80;;;;;;;16.34;100.00;96223.56;4935511;29;20215;-91
2021/05/21 10:42:37;;;;;;;3.57;3.00;;;;;;;16.64;100.00;96235.56;4935768;29;20685;-92
2021/05/21 10:45:14;;;;;;;4.40;4.10;;;;;;;17.06;100.00;96167.34;4936002;29;20655;-90
2021/05/21 10:47:44;;;;;;;1.67;1.57;;;;;;;16.66;100.00;96150.47;4936351;29;20206;-91
2021/05/21 10:50:18;;;;;;;2.23;2.13;;;;;;;16.46;100.00;96174.28;4935781;29;20208;-93
2021/05/21 10:52:59;;;;;;;4.13;3.83;;;;;;;16.34;100.00;96207.66;4935540;29;20194;-90
2021/05/21 10:55:52;;;;;;;3.47;3.27;;;;;;;16.24;100.00;96298.16;4935506;29;20257;-91
2021/05/21 10:58:29;;;;;;;2.90;2.60;;;;;;;16.85;100.00;96247.13;4935479;29;20190;-90
2021/05/21 11:01:19;;;;;;;2.80;2.30;;;;;;;16.70;100.00;96185.41;4935654;29;20198;-91
2021/05/21 11:04:07;;;;;;;2.07;1.70;;;;;;;16.63;100.00;96134.94;4939665;29;20218;-90
2021/05/21 11:06:44;;;;;;;1.60;1.50;;;;;;;16.43;100.00;96158.75;4939052;29;20205;-90
2021/05/21 11:09:13;;;;;;;4.03;3.17;;;;;;;16.51;100.00;96218.78;4939066;29;20194;-90
2021/05/21 11:11:48;;;;;;;2.37;2.00;;;;;;;16.44;100.00;96154.25;4939304;29;20210;-89
2021/05/21 11:14:33;;;;;;;3.57;1.80;;;;;;;16.87;100.00;96160.97;4939080;29;20193;-91
2021/05/21 11:17:12;;;;;;;2.33;2.13;;;;;;;17.49;100.00;96252.00;4939412;29;20201;-91
2021/05/21 11:19:45;;;;;;;1.83;1.40;;;;;;;17.47;100.00;96163.69;4938793;29;20241;-91
2021/05/21 11:22:22;;;;;;;1.77;1.67;;;;;;;16.64;100.00;96166.56;4938937;29;20201;-90
2021/05/21 11:24:52;;;;;;;1.60;1.50;;;;;;;16.36;100.00;96274.59;4938644;29;20213;-90
2021/05/21 11:27:19;;;;;;;1.80;1.70;;;;;;;16.38;100.00;96310.53;4939232;29;20198;-91
2021/05/21 11:29:48;;;;;;;1.40;1.30;;;;;;;16.60;100.00;96279.44;4938802;29;20201;-88
2021/05/21 11:32:17;;;;;;;1.57;1.47;;;;;;;16.52;100.00;96284.91;4938821;29;20240;-90
2021/05/21 11:34:45;;;;;;;1.50;1.40;;;;;;;16.90;100.00;96276.53;4938559;29;20276;-90
2021/05/21 11:37:21;;;;;;;2.50;1.20;;;;;;;16.96;100.00;96229.81;4938582;29;20199;-90
2021/05/21 11:39:48;;;;;;;1.87;1.77;;;;;;;16.98;100.00;96175.50;4938775;29;20188;-93
2021/05/21 11:42:35;;;;;;;1.50;1.40;;;;;;;16.56;100.00;96185.34;4938430;29;20590;-92
2021/05/21 11:45:04;;;;;;;3.07;1.50;;;;;;;16.62;100.00;96189.00;4940334;29;20284;-90
2021/05/21 11:47:36;;;;;;;1.50;1.40;;;;;;;16.50;100.00;96223.25;4938592;29;20206;-92
2021/05/21 11:50:05;;;;;;;1.40;1.30;;;;;;;16.34;100.00;96229.69;4939093;29;20222;-92
2021/05/21 11:52:33;;;;;;;2.30;2.10;;;;;;;16.18;100.00;96251.25;4938528;29;20586;-92